sensor_id;sensor_type;location;lat;lon;timestamp;P1;durP1;ratioP1;P2;durP2;ratioP2
46815;SDS011;32787;53.316;8.670;2024-01-30T00:01:15;23.75;;;11.65;;
46815;SDS011;32787;53.316;8.670;2024-01-30T00:03:41;22.25;;;11.15;;
46815;SDS011;32787;53.316;8.670;2024-01-30T00:06:10;19.40;;;11.20;;
46815;SDS011;32787;53.316;8.670;2024-01-30T00:08:37;21.02;;;10.60;;
46815;SDS011;32787;53.316;8.670;2024-01-30T00:11:02;20.35;;;10.80;;
46815;SDS011;32787;53.316;8.670;2024-01-30T00:13:28;21.25;;;10.75;;
46815;SDS011;32787;53.316;8.670;2024-01-30T00:15:54;26.15;;;11.63;;
46815;SDS011;32787;53.316;8.670;2024-01-30T00:18:19;20.45;;;10.13;;
46815;SDS011;32787;53.316;8.670;2024-01-30T00:20:45;22.35;;;11.07;;
46815;SDS011;32787;53.316;8.670;2024-01-30T00:23:11;22.65;;;10.32;;
46815;SDS011;32787;53.316;8.670;2024-01-30T00:25:37;24.65;;;11.75;;
46815;SDS011;32787;53.316;8.670;2024-01-30T00:28:02;21.50;;;11.00;;
46815;SDS011;32787;53.316;8.670;2024-01-30T00:30:28;20.85;;;11.73;;
46815;SDS011;32787;53.316;8.670;2024-01-30T00:32:54;28.08;;;10.88;;
46815;SDS011;32787;53.316;8.670;2024-01-30T00:35:19;23.38;;;11.00;;
46815;SDS011;32787;53.316;8.670;2024-01-30T00:37:47;22.92;;;11.25;;
46815;SDS011;32787;53.316;8.670;2024-01-30T00:40:13;22.85;;;10.93;;
46815;SDS011;32787;53.316;8.670;2024-01-30T00:42:43;22.75;;;10.70;;
46815;SDS011;32787;53.316;8.670;2024-01-30T00:45:13;20.50;;;10.35;;
46815;SDS011;32787;53.316;8.670;2024-01-30T00:47:39;20.75;;;11.63;;
46815;SDS011;32787;53.316;8.670;2024-01-30T00:50:05;24.05;;;12.52;;
46815;SDS011;32787;53.316;8.670;2024-01-30T00:52:31;20.95;;;10.45;;
46815;SDS011;32787;53.316;8.670;2024-01-30T00:54:58;21.60;;;10.98;;
46815;SDS011;32787;53.316;8.670;2024-01-30T00:57:24;22.48;;;11.35;;
46815;SDS011;32787;53.316;8.670;2024-01-30T00:59:49;22.92;;;11.13;;
46815;SDS011;32787;53.316;8.670;2024-01-30T01:02:15;23.83;;;11.88;;
46815;SDS011;32787;53.316;8.670;2024-01-30T01:04:42;26.40;;;11.23;;
46815;SDS011;32787;53.316;8.670;2024-01-30T01:07:09;25.08;;;10.50;;
46815;SDS011;32787;53.316;8.670;2024-01-30T01:09:35;24.20;;;11.45;;
46815;SDS011;32787;53.316;8.670;2024-01-30T01:12:01;24.88;;;11.70;;
46815;SDS011;32787;53.316;8.670;2024-01-30T01:14:27;24.80;;;11.68;;
46815;SDS011;32787;53.316;8.670;2024-01-30T01:16:53;25.80;;;12.07;;
46815;SDS011;32787;53.316;8.670;2024-01-30T01:19:18;24.33;;;11.27;;
46815;SDS011;32787;53.316;8.670;2024-01-30T01:21:44;28.17;;;12.43;;
46815;SDS011;32787;53.316;8.670;2024-01-30T01:24:16;22.90;;;11.55;;
46815;SDS011;32787;53.316;8.670;2024-01-30T01:26:42;24.25;;;12.40;;
46815;SDS011;32787;53.316;8.670;2024-01-30T01:29:07;21.95;;;12.07;;
46815;SDS011;32787;53.316;8.670;2024-01-30T01:31:36;23.37;;;11.10;;
46815;SDS011;32787;53.316;8.670;2024-01-30T01:34:11;21.73;;;11.27;;
46815;SDS011;32787;53.316;8.670;2024-01-30T01:36:37;22.40;;;12.30;;
46815;SDS011;32787;53.316;8.670;2024-01-30T01:39:02;22.13;;;11.85;;
46815;SDS011;32787;53.316;8.670;2024-01-30T01:41:31;21.50;;;11.43;;
46815;SDS011;32787;53.316;8.670;2024-01-30T01:43:58;24.45;;;12.05;;
46815;SDS011;32787;53.316;8.670;2024-01-30T01:46:26;24.13;;;12.00;;
46815;SDS011;32787;53.316;8.670;2024-01-30T01:48:52;24.00;;;12.73;;
46815;SDS011;32787;53.316;8.670;2024-01-30T01:51:19;22.85;;;11.25;;
46815;SDS011;32787;53.316;8.670;2024-01-30T01:53:45;22.25;;;11.43;;
46815;SDS011;32787;53.316;8.670;2024-01-30T01:56:11;26.08;;;12.10;;
46815;SDS011;32787;53.316;8.670;2024-01-30T01:58:36;22.35;;;11.40;;
46815;SDS011;32787;53.316;8.670;2024-01-30T02:01:03;21.65;;;11.38;;
46815;SDS011;32787;53.316;8.670;2024-01-30T02:03:30;24.98;;;11.93;;
46815;SDS011;32787;53.316;8.670;2024-01-30T02:05:56;24.70;;;12.80;;
46815;SDS011;32787;53.316;8.670;2024-01-30T02:08:22;22.10;;;11.88;;
46815;SDS011;32787;53.316;8.670;2024-01-30T02:10:48;27.77;;;11.25;;
46815;SDS011;32787;53.316;8.670;2024-01-30T02:13:14;21.98;;;11.18;;
46815;SDS011;32787;53.316;8.670;2024-01-30T02:15:40;27.17;;;11.52;;
46815;SDS011;32787;53.316;8.670;2024-01-30T02:18:05;23.88;;;11.27;;
46815;SDS011;32787;53.316;8.670;2024-01-30T02:20:31;24.08;;;11.88;;
46815;SDS011;32787;53.316;8.670;2024-01-30T02:22:59;21.67;;;11.88;;
46815;SDS011;32787;53.316;8.670;2024-01-30T02:25:31;25.77;;;11.73;;
46815;SDS011;32787;53.316;8.670;2024-01-30T02:27:57;24.33;;;11.13;;
46815;SDS011;32787;53.316;8.670;2024-01-30T02:30:23;24.95;;;11.75;;
46815;SDS011;32787;53.316;8.670;2024-01-30T02:32:49;21.25;;;11.02;;
46815;SDS011;32787;53.316;8.670;2024-01-30T02:35:15;21.73;;;11.23;;
46815;SDS011;32787;53.316;8.670;2024-01-30T02:37:40;23.38;;;11.23;;
46815;SDS011;32787;53.316;8.670;2024-01-30T02:40:06;22.20;;;11.10;;
46815;SDS011;32787;53.316;8.670;2024-01-30T02:42:32;22.80;;;11.30;;
46815;SDS011;32787;53.316;8.670;2024-01-30T02:44:58;21.63;;;11.52;;
46815;SDS011;32787;53.316;8.670;2024-01-30T02:47:23;21.75;;;11.13;;
46815;SDS011;32787;53.316;8.670;2024-01-30T02:49:49;22.42;;;11.73;;
46815;SDS011;32787;53.316;8.670;2024-01-30T02:52:14;23.00;;;12.63;;
46815;SDS011;32787;53.316;8.670;2024-01-30T02:54:40;24.33;;;12.55;;
46815;SDS011;32787;53.316;8.670;2024-01-30T02:57:06;22.98;;;10.50;;
46815;SDS011;32787;53.316;8.670;2024-01-30T02:59:31;26.30;;;11.57;;
46815;SDS011;32787;53.316;8.670;2024-01-30T03:02:00;22.63;;;10.65;;
46815;SDS011;32787;53.316;8.670;2024-01-30T03:04:26;22.92;;;11.05;;
46815;SDS011;32787;53.316;8.670;2024-01-30T03:06:52;23.63;;;11.10;;
46815;SDS011;32787;53.316;8.670;2024-01-30T03:09:18;23.90;;;12.55;;
46815;SDS011;32787;53.316;8.670;2024-01-30T03:11:43;25.88;;;11.75;;
46815;SDS011;32787;53.316;8.670;2024-01-30T03:14:09;23.63;;;10.43;;
46815;SDS011;32787;53.316;8.670;2024-01-30T03:16:37;21.05;;;11.75;;
46815;SDS011;32787;53.316;8.670;2024-01-30T03:19:05;22.42;;;12.02;;
46815;SDS011;32787;53.316;8.670;2024-01-30T03:21:32;21.83;;;11.60;;
46815;SDS011;32787;53.316;8.670;2024-01-30T03:23:58;22.45;;;12.23;;
46815;SDS011;32787;53.316;8.670;2024-01-30T03:26:24;27.52;;;12.65;;
46815;SDS011;32787;53.316;8.670;2024-01-30T03:28:50;21.92;;;12.30;;
46815;SDS011;32787;53.316;8.670;2024-01-30T03:31:15;21.17;;;11.57;;
46815;SDS011;32787;53.316;8.670;2024-01-30T03:33:41;19.90;;;10.90;;
46815;SDS011;32787;53.316;8.670;2024-01-30T03:36:07;22.30;;;13.05;;
46815;SDS011;32787;53.316;8.670;2024-01-30T03:38:34;26.92;;;13.45;;
46815;SDS011;32787;53.316;8.670;2024-01-30T03:40:59;29.38;;;13.73;;
46815;SDS011;32787;53.316;8.670;2024-01-30T03:43:25;29.05;;;13.43;;
46815;SDS011;32787;53.316;8.670;2024-01-30T03:45:51;32.15;;;15.90;;
46815;SDS011;32787;53.316;8.670;2024-01-30T03:48:17;40.05;;;16.38;;
46815;SDS011;32787;53.316;8.670;2024-01-30T03:50:43;31.63;;;15.77;;
46815;SDS011;32787;53.316;8.670;2024-01-30T03:53:09;38.92;;;17.08;;
46815;SDS011;32787;53.316;8.670;2024-01-30T03:55:35;35.30;;;15.50;;
46815;SDS011;32787;53.316;8.670;2024-01-30T03:58:00;24.10;;;12.85;;
46815;SDS011;32787;53.316;8.670;2024-01-30T04:00:26;26.73;;;12.77;;
46815;SDS011;32787;53.316;8.670;2024-01-30T04:02:52;25.30;;;12.50;;
46815;SDS011;32787;53.316;8.670;2024-01-30T04:05:17;23.15;;;13.05;;
46815;SDS011;32787;53.316;8.670;2024-01-30T04:07:43;24.08;;;13.40;;
46815;SDS011;32787;53.316;8.670;2024-01-30T04:10:09;23.63;;;12.63;;
46815;SDS011;32787;53.316;8.670;2024-01-30T04:12:35;24.98;;;12.95;;
46815;SDS011;32787;53.316;8.670;2024-01-30T04:15:01;27.08;;;12.95;;
46815;SDS011;32787;53.316;8.670;2024-01-30T04:17:27;24.77;;;12.85;;
46815;SDS011;32787;53.316;8.670;2024-01-30T04:19:54;19.90;;;11.25;;
46815;SDS011;32787;53.316;8.670;2024-01-30T04:22:20;21.95;;;11.43;;
46815;SDS011;32787;53.316;8.670;2024-01-30T04:24:46;20.58;;;12.48;;
46815;SDS011;32787;53.316;8.670;2024-01-30T04:27:11;19.27;;;11.57;;
46815;SDS011;32787;53.316;8.670;2024-01-30T04:29:37;23.10;;;10.38;;
46815;SDS011;32787;53.316;8.670;2024-01-30T04:32:03;18.58;;;10.68;;
46815;SDS011;32787;53.316;8.670;2024-01-30T04:34:29;19.88;;;10.63;;
46815;SDS011;32787;53.316;8.670;2024-01-30T04:36:55;22.80;;;11.30;;
46815;SDS011;32787;53.316;8.670;2024-01-30T04:39:21;24.13;;;18.10;;
46815;SDS011;32787;53.316;8.670;2024-01-30T04:41:46;26.20;;;18.17;;
46815;SDS011;32787;53.316;8.670;2024-01-30T04:44:13;23.25;;;10.88;;
46815;SDS011;32787;53.316;8.670;2024-01-30T04:46:39;22.30;;;11.25;;
46815;SDS011;32787;53.316;8.670;2024-01-30T04:49:05;21.45;;;11.00;;
46815;SDS011;32787;53.316;8.670;2024-01-30T04:51:32;24.67;;;15.75;;
46815;SDS011;32787;53.316;8.670;2024-01-30T04:53:58;24.30;;;16.75;;
46815;SDS011;32787;53.316;8.670;2024-01-30T04:56:24;26.52;;;12.63;;
46815;SDS011;32787;53.316;8.670;2024-01-30T04:58:50;26.75;;;13.23;;
46815;SDS011;32787;53.316;8.670;2024-01-30T05:01:16;24.05;;;12.93;;
46815;SDS011;32787;53.316;8.670;2024-01-30T05:03:42;21.77;;;12.55;;
46815;SDS011;32787;53.316;8.670;2024-01-30T05:06:08;22.55;;;11.52;;
46815;SDS011;32787;53.316;8.670;2024-01-30T05:08:33;21.55;;;11.25;;
46815;SDS011;32787;53.316;8.670;2024-01-30T05:11:01;20.88;;;11.77;;
46815;SDS011;32787;53.316;8.670;2024-01-30T05:13:31;25.05;;;12.38;;
46815;SDS011;32787;53.316;8.670;2024-01-30T05:15:57;25.52;;;12.70;;
46815;SDS011;32787;53.316;8.670;2024-01-30T05:18:22;20.35;;;14.55;;
46815;SDS011;32787;53.316;8.670;2024-01-30T05:20:49;22.08;;;11.50;;
46815;SDS011;32787;53.316;8.670;2024-01-30T05:23:16;23.13;;;12.57;;
46815;SDS011;32787;53.316;8.670;2024-01-30T05:25:41;25.75;;;13.55;;
46815;SDS011;32787;53.316;8.670;2024-01-30T05:28:07;24.38;;;13.80;;
46815;SDS011;32787;53.316;8.670;2024-01-30T05:30:33;22.70;;;13.45;;
46815;SDS011;32787;53.316;8.670;2024-01-30T05:32:58;23.10;;;15.38;;
46815;SDS011;32787;53.316;8.670;2024-01-30T05:35:24;25.40;;;16.58;;
46815;SDS011;32787;53.316;8.670;2024-01-30T05:37:50;23.15;;;15.48;;
46815;SDS011;32787;53.316;8.670;2024-01-30T05:40:16;26.13;;;16.75;;
46815;SDS011;32787;53.316;8.670;2024-01-30T05:42:41;25.13;;;17.75;;
46815;SDS011;32787;53.316;8.670;2024-01-30T05:45:07;24.15;;;16.48;;
46815;SDS011;32787;53.316;8.670;2024-01-30T05:47:34;19.42;;;12.25;;
46815;SDS011;32787;53.316;8.670;2024-01-30T05:50:00;26.55;;;20.83;;
46815;SDS011;32787;53.316;8.670;2024-01-30T05:52:25;31.05;;;24.95;;
46815;SDS011;32787;53.316;8.670;2024-01-30T05:54:51;35.60;;;31.77;;
46815;SDS011;32787;53.316;8.670;2024-01-30T05:57:17;33.75;;;26.80;;
46815;SDS011;32787;53.316;8.670;2024-01-30T05:59:43;31.45;;;26.10;;
46815;SDS011;32787;53.316;8.670;2024-01-30T06:02:12;29.05;;;23.67;;
46815;SDS011;32787;53.316;8.670;2024-01-30T06:04:38;29.20;;;20.42;;
46815;SDS011;32787;53.316;8.670;2024-01-30T06:07:04;26.25;;;23.30;;
46815;SDS011;32787;53.316;8.670;2024-01-30T06:09:31;29.73;;;26.58;;
46815;SDS011;32787;53.316;8.670;2024-01-30T06:11:57;32.50;;;27.52;;
46815;SDS011;32787;53.316;8.670;2024-01-30T06:14:22;32.70;;;27.75;;
46815;SDS011;32787;53.316;8.670;2024-01-30T06:16:48;42.78;;;35.58;;
46815;SDS011;32787;53.316;8.670;2024-01-30T06:19:14;41.45;;;29.77;;
46815;SDS011;32787;53.316;8.670;2024-01-30T06:21:40;35.83;;;28.90;;
46815;SDS011;32787;53.316;8.670;2024-01-30T06:24:06;31.45;;;27.98;;
46815;SDS011;32787;53.316;8.670;2024-01-30T06:26:31;29.75;;;25.13;;
46815;SDS011;32787;53.316;8.670;2024-01-30T06:28:57;28.15;;;22.88;;
46815;SDS011;32787;53.316;8.670;2024-01-30T06:31:23;32.63;;;29.15;;
46815;SDS011;32787;53.316;8.670;2024-01-30T06:33:49;33.83;;;26.73;;
46815;SDS011;32787;53.316;8.670;2024-01-30T06:36:14;32.63;;;25.25;;
46815;SDS011;32787;53.316;8.670;2024-01-30T06:38:40;27.42;;;20.75;;
46815;SDS011;32787;53.316;8.670;2024-01-30T06:41:06;37.50;;;33.53;;
46815;SDS011;32787;53.316;8.670;2024-01-30T06:43:32;33.25;;;28.63;;
46815;SDS011;32787;53.316;8.670;2024-01-30T06:45:57;41.03;;;37.03;;
46815;SDS011;32787;53.316;8.670;2024-01-30T06:48:24;36.90;;;33.28;;
46815;SDS011;32787;53.316;8.670;2024-01-30T06:50:51;43.83;;;39.60;;
46815;SDS011;32787;53.316;8.670;2024-01-30T06:53:18;38.30;;;32.47;;
46815;SDS011;32787;53.316;8.670;2024-01-30T06:55:44;43.75;;;38.63;;
46815;SDS011;32787;53.316;8.670;2024-01-30T06:58:10;38.42;;;32.13;;
46815;SDS011;32787;53.316;8.670;2024-01-30T07:00:36;36.20;;;30.92;;
46815;SDS011;32787;53.316;8.670;2024-01-30T07:03:02;36.45;;;29.25;;
46815;SDS011;32787;53.316;8.670;2024-01-30T07:05:28;34.92;;;26.58;;
46815;SDS011;32787;53.316;8.670;2024-01-30T07:07:54;32.22;;;27.40;;
46815;SDS011;32787;53.316;8.670;2024-01-30T07:10:19;34.28;;;25.17;;
46815;SDS011;32787;53.316;8.670;2024-01-30T07:12:45;28.10;;;19.17;;
46815;SDS011;32787;53.316;8.670;2024-01-30T07:15:11;26.80;;;21.92;;
46815;SDS011;32787;53.316;8.670;2024-01-30T07:17:37;29.17;;;20.55;;
46815;SDS011;32787;53.316;8.670;2024-01-30T07:20:03;27.42;;;18.10;;
46815;SDS011;32787;53.316;8.670;2024-01-30T07:22:30;35.10;;;19.23;;
46815;SDS011;32787;53.316;8.670;2024-01-30T07:24:56;30.63;;;24.92;;
46815;SDS011;32787;53.316;8.670;2024-01-30T07:27:22;29.30;;;19.35;;
46815;SDS011;32787;53.316;8.670;2024-01-30T07:29:47;28.70;;;20.88;;
46815;SDS011;32787;53.316;8.670;2024-01-30T07:32:13;40.00;;;35.97;;
46815;SDS011;32787;53.316;8.670;2024-01-30T07:34:38;28.45;;;19.50;;
46815;SDS011;32787;53.316;8.670;2024-01-30T07:37:04;27.00;;;18.85;;
46815;SDS011;32787;53.316;8.670;2024-01-30T07:39:30;29.83;;;21.42;;
46815;SDS011;32787;53.316;8.670;2024-01-30T07:41:55;29.88;;;21.65;;
46815;SDS011;32787;53.316;8.670;2024-01-30T07:44:21;31.38;;;27.20;;
46815;SDS011;32787;53.316;8.670;2024-01-30T07:46:48;26.88;;;19.80;;
46815;SDS011;32787;53.316;8.670;2024-01-30T07:49:14;30.65;;;26.35;;
46815;SDS011;32787;53.316;8.670;2024-01-30T07:51:39;27.27;;;19.50;;
46815;SDS011;32787;53.316;8.670;2024-01-30T07:54:05;31.50;;;27.48;;
46815;SDS011;32787;53.316;8.670;2024-01-30T07:56:31;53.65;;;48.65;;
46815;SDS011;32787;53.316;8.670;2024-01-30T07:58:56;26.58;;;20.83;;
46815;SDS011;32787;53.316;8.670;2024-01-30T08:01:22;33.53;;;27.95;;
46815;SDS011;32787;53.316;8.670;2024-01-30T08:03:48;38.17;;;34.58;;
46815;SDS011;32787;53.316;8.670;2024-01-30T08:06:13;26.98;;;23.17;;
46815;SDS011;32787;53.316;8.670;2024-01-30T08:08:39;32.38;;;29.25;;
46815;SDS011;32787;53.316;8.670;2024-01-30T08:11:05;29.98;;;20.20;;
46815;SDS011;32787;53.316;8.670;2024-01-30T08:13:30;27.05;;;22.02;;
46815;SDS011;32787;53.316;8.670;2024-01-30T08:15:56;28.30;;;15.73;;
46815;SDS011;32787;53.316;8.670;2024-01-30T08:18:22;34.63;;;31.27;;
46815;SDS011;32787;53.316;8.670;2024-01-30T08:20:47;50.90;;;46.28;;
46815;SDS011;32787;53.316;8.670;2024-01-30T08:23:14;36.30;;;32.67;;
46815;SDS011;32787;53.316;8.670;2024-01-30T08:25:39;61.85;;;56.72;;
46815;SDS011;32787;53.316;8.670;2024-01-30T08:28:05;57.58;;;52.67;;
46815;SDS011;32787;53.316;8.670;2024-01-30T08:30:32;40.95;;;37.38;;
46815;SDS011;32787;53.316;8.670;2024-01-30T08:32:58;79.15;;;73.60;;
46815;SDS011;32787;53.316;8.670;2024-01-30T08:35:23;73.30;;;67.75;;
46815;SDS011;32787;53.316;8.670;2024-01-30T08:37:49;32.42;;;28.17;;
46815;SDS011;32787;53.316;8.670;2024-01-30T08:40:14;26.83;;;19.35;;
46815;SDS011;32787;53.316;8.670;2024-01-30T08:42:40;31.52;;;27.58;;
46815;SDS011;32787;53.316;8.670;2024-01-30T08:45:06;32.15;;;27.73;;
46815;SDS011;32787;53.316;8.670;2024-01-30T08:47:32;40.28;;;32.35;;
46815;SDS011;32787;53.316;8.670;2024-01-30T08:49:58;23.75;;;16.20;;
46815;SDS011;32787;53.316;8.670;2024-01-30T08:52:24;24.67;;;18.80;;
46815;SDS011;32787;53.316;8.670;2024-01-30T08:54:50;25.60;;;22.88;;
46815;SDS011;32787;53.316;8.670;2024-01-30T08:57:15;35.33;;;32.08;;
46815;SDS011;32787;53.316;8.670;2024-01-30T08:59:41;23.25;;;19.40;;
46815;SDS011;32787;53.316;8.670;2024-01-30T09:02:09;33.60;;;30.45;;
46815;SDS011;32787;53.316;8.670;2024-01-30T09:04:37;43.38;;;40.03;;
46815;SDS011;32787;53.316;8.670;2024-01-30T09:07:03;27.10;;;24.23;;
46815;SDS011;32787;53.316;8.670;2024-01-30T09:09:31;28.27;;;25.75;;
46815;SDS011;32787;53.316;8.670;2024-01-30T09:11:56;41.28;;;37.83;;
46815;SDS011;32787;53.316;8.670;2024-01-30T09:14:27;53.92;;;49.70;;
46815;SDS011;32787;53.316;8.670;2024-01-30T09:16:52;40.28;;;36.75;;
46815;SDS011;32787;53.316;8.670;2024-01-30T09:19:18;35.75;;;32.65;;
46815;SDS011;32787;53.316;8.670;2024-01-30T09:21:43;30.00;;;27.00;;
46815;SDS011;32787;53.316;8.670;2024-01-30T09:24:09;30.67;;;27.77;;
46815;SDS011;32787;53.316;8.670;2024-01-30T09:26:35;61.65;;;57.10;;
46815;SDS011;32787;53.316;8.670;2024-01-30T09:29:01;55.15;;;51.17;;
46815;SDS011;32787;53.316;8.670;2024-01-30T09:31:26;25.40;;;22.95;;
46815;SDS011;32787;53.316;8.670;2024-01-30T09:33:52;19.83;;;12.50;;
46815;SDS011;32787;53.316;8.670;2024-01-30T09:36:19;30.00;;;26.92;;
46815;SDS011;32787;53.316;8.670;2024-01-30T09:38:45;20.60;;;15.65;;
46815;SDS011;32787;53.316;8.670;2024-01-30T09:41:11;45.47;;;42.22;;
46815;SDS011;32787;53.316;8.670;2024-01-30T09:43:37;68.57;;;64.40;;
46815;SDS011;32787;53.316;8.670;2024-01-30T09:46:07;26.08;;;23.55;;
46815;SDS011;32787;53.316;8.670;2024-01-30T09:48:38;18.58;;;15.88;;
46815;SDS011;32787;53.316;8.670;2024-01-30T09:51:06;20.73;;;18.15;;
46815;SDS011;32787;53.316;8.670;2024-01-30T09:53:33;21.02;;;18.27;;
46815;SDS011;32787;53.316;8.670;2024-01-30T09:55:58;25.17;;;18.63;;
46815;SDS011;32787;53.316;8.670;2024-01-30T09:58:25;22.95;;;15.13;;
46815;SDS011;32787;53.316;8.670;2024-01-30T10:00:51;21.60;;;18.92;;
46815;SDS011;32787;53.316;8.670;2024-01-30T10:03:18;21.00;;;17.00;;
46815;SDS011;32787;53.316;8.670;2024-01-30T10:05:45;22.50;;;20.23;;
46815;SDS011;32787;53.316;8.670;2024-01-30T10:08:17;24.73;;;22.17;;
46815;SDS011;32787;53.316;8.670;2024-01-30T10:10:46;18.17;;;15.18;;
46815;SDS011;32787;53.316;8.670;2024-01-30T10:13:12;21.67;;;19.42;;
46815;SDS011;32787;53.316;8.670;2024-01-30T10:15:38;21.08;;;15.82;;
46815;SDS011;32787;53.316;8.670;2024-01-30T10:18:05;25.40;;;22.85;;
46815;SDS011;32787;53.316;8.670;2024-01-30T10:20:32;47.15;;;43.85;;
46815;SDS011;32787;53.316;8.670;2024-01-30T10:22:58;21.90;;;11.15;;
46815;SDS011;32787;53.316;8.670;2024-01-30T10:25:25;20.23;;;12.63;;
46815;SDS011;32787;53.316;8.670;2024-01-30T10:27:54;23.05;;;20.77;;
46815;SDS011;32787;53.316;8.670;2024-01-30T10:30:21;20.77;;;11.30;;
46815;SDS011;32787;53.316;8.670;2024-01-30T10:32:47;17.63;;;11.82;;
46815;SDS011;32787;53.316;8.670;2024-01-30T10:35:13;18.77;;;12.30;;
46815;SDS011;32787;53.316;8.670;2024-01-30T10:37:39;20.52;;;13.55;;
46815;SDS011;32787;53.316;8.670;2024-01-30T10:40:06;20.23;;;11.55;;
46815;SDS011;32787;53.316;8.670;2024-01-30T10:42:34;19.85;;;15.68;;
46815;SDS011;32787;53.316;8.670;2024-01-30T10:45:14;21.33;;;18.75;;
46815;SDS011;32787;53.316;8.670;2024-01-30T10:47:44;18.70;;;14.73;;
46815;SDS011;32787;53.316;8.670;2024-01-30T10:50:14;20.15;;;15.05;;
46815;SDS011;32787;53.316;8.670;2024-01-30T10:52:41;28.38;;;25.88;;
46815;SDS011;32787;53.316;8.670;2024-01-30T10:55:08;19.45;;;12.73;;
46815;SDS011;32787;53.316;8.670;2024-01-30T10:57:35;16.50;;;11.00;;
46815;SDS011;32787;53.316;8.670;2024-01-30T11:00:02;19.00;;;11.82;;
46815;SDS011;32787;53.316;8.670;2024-01-30T11:02:30;23.27;;;16.45;;
46815;SDS011;32787;53.316;8.670;2024-01-30T11:04:57;22.63;;;17.23;;
46815;SDS011;32787;53.316;8.670;2024-01-30T11:07:25;20.02;;;13.82;;
46815;SDS011;32787;53.316;8.670;2024-01-30T11:10:01;18.75;;;14.68;;
46815;SDS011;32787;53.316;8.670;2024-01-30T11:12:29;19.85;;;12.57;;
46815;SDS011;32787;53.316;8.670;2024-01-30T11:15:05;17.70;;;11.20;;
46815;SDS011;32787;53.316;8.670;2024-01-30T11:17:49;18.27;;;13.93;;
46815;SDS011;32787;53.316;8.670;2024-01-30T11:20:18;17.65;;;11.13;;
46815;SDS011;32787;53.316;8.670;2024-01-30T11:22:54;17.30;;;10.32;;
46815;SDS011;32787;53.316;8.670;2024-01-30T11:25:21;19.15;;;12.40;;
46815;SDS011;32787;53.316;8.670;2024-01-30T11:27:49;20.08;;;17.85;;
46815;SDS011;32787;53.316;8.670;2024-01-30T11:30:25;17.50;;;11.18;;
46815;SDS011;32787;53.316;8.670;2024-01-30T11:35:29;17.13;;;11.25;;
46815;SDS011;32787;53.316;8.670;2024-01-30T11:37:57;18.58;;;12.02;;
46815;SDS011;32787;53.316;8.670;2024-01-30T11:40:23;18.30;;;14.68;;
46815;SDS011;32787;53.316;8.670;2024-01-30T11:42:52;18.88;;;8.68;;
46815;SDS011;32787;53.316;8.670;2024-01-30T11:45:19;20.20;;;15.23;;
46815;SDS011;32787;53.316;8.670;2024-01-30T11:47:45;20.67;;;16.98;;
46815;SDS011;32787;53.316;8.670;2024-01-30T11:50:11;20.80;;;17.63;;
46815;SDS011;32787;53.316;8.670;2024-01-30T11:52:36;22.52;;;20.13;;
46815;SDS011;32787;53.316;8.670;2024-01-30T11:55:02;21.08;;;17.20;;
46815;SDS011;32787;53.316;8.670;2024-01-30T11:57:29;23.33;;;18.38;;
46815;SDS011;32787;53.316;8.670;2024-01-30T11:59:55;23.77;;;20.27;;
46815;SDS011;32787;53.316;8.670;2024-01-30T12:02:20;23.67;;;17.42;;
46815;SDS011;32787;53.316;8.670;2024-01-30T12:04:46;23.13;;;16.55;;
46815;SDS011;32787;53.316;8.670;2024-01-30T12:07:12;18.65;;;16.02;;
46815;SDS011;32787;53.316;8.670;2024-01-30T12:09:40;15.75;;;12.15;;
46815;SDS011;32787;53.316;8.670;2024-01-30T12:12:07;20.65;;;17.02;;
46815;SDS011;32787;53.316;8.670;2024-01-30T12:14:37;17.65;;;15.13;;
46815;SDS011;32787;53.316;8.670;2024-01-30T12:17:06;17.33;;;12.93;;
46815;SDS011;32787;53.316;8.670;2024-01-30T12:19:33;19.67;;;12.65;;
46815;SDS011;32787;53.316;8.670;2024-01-30T12:21:59;19.92;;;14.77;;
46815;SDS011;32787;53.316;8.670;2024-01-30T12:24:25;17.17;;;9.73;;
46815;SDS011;32787;53.316;8.670;2024-01-30T12:26:52;19.45;;;11.25;;
46815;SDS011;32787;53.316;8.670;2024-01-30T12:29:21;19.47;;;8.70;;
46815;SDS011;32787;53.316;8.670;2024-01-30T12:31:47;20.92;;;9.65;;
46815;SDS011;32787;53.316;8.670;2024-01-30T12:34:15;14.93;;;10.02;;
46815;SDS011;32787;53.316;8.670;2024-01-30T12:36:42;20.25;;;10.02;;
46815;SDS011;32787;53.316;8.670;2024-01-30T12:39:10;18.15;;;12.18;;
46815;SDS011;32787;53.316;8.670;2024-01-30T12:41:40;17.90;;;9.95;;
46815;SDS011;32787;53.316;8.670;2024-01-30T12:44:05;16.05;;;8.13;;
46815;SDS011;32787;53.316;8.670;2024-01-30T12:46:33;17.55;;;9.27;;
46815;SDS011;32787;53.316;8.670;2024-01-30T12:48:59;21.58;;;10.88;;
46815;SDS011;32787;53.316;8.670;2024-01-30T12:51:25;17.13;;;9.10;;
46815;SDS011;32787;53.316;8.670;2024-01-30T12:53:51;20.65;;;8.38;;
46815;SDS011;32787;53.316;8.670;2024-01-30T12:56:16;16.92;;;9.25;;
46815;SDS011;32787;53.316;8.670;2024-01-30T12:58:42;15.90;;;8.70;;
46815;SDS011;32787;53.316;8.670;2024-01-30T13:01:08;22.42;;;8.23;;
46815;SDS011;32787;53.316;8.670;2024-01-30T13:03:34;17.63;;;8.68;;
46815;SDS011;32787;53.316;8.670;2024-01-30T13:06:00;18.98;;;9.63;;
46815;SDS011;32787;53.316;8.670;2024-01-30T13:08:26;16.75;;;8.98;;
46815;SDS011;32787;53.316;8.670;2024-01-30T13:10:52;17.85;;;9.88;;
46815;SDS011;32787;53.316;8.670;2024-01-30T13:13:17;23.27;;;10.55;;
46815;SDS011;32787;53.316;8.670;2024-01-30T13:15:43;18.92;;;13.23;;
46815;SDS011;32787;53.316;8.670;2024-01-30T13:18:09;17.83;;;10.52;;
46815;SDS011;32787;53.316;8.670;2024-01-30T13:20:35;19.65;;;11.43;;
46815;SDS011;32787;53.316;8.670;2024-01-30T13:23:01;24.70;;;10.23;;
46815;SDS011;32787;53.316;8.670;2024-01-30T13:25:26;15.55;;;10.88;;
46815;SDS011;32787;53.316;8.670;2024-01-30T13:27:52;16.85;;;11.27;;
46815;SDS011;32787;53.316;8.670;2024-01-30T13:30:18;19.60;;;10.52;;
46815;SDS011;32787;53.316;8.670;2024-01-30T13:32:44;18.48;;;10.93;;
46815;SDS011;32787;53.316;8.670;2024-01-30T13:35:10;16.08;;;9.68;;
46815;SDS011;32787;53.316;8.670;2024-01-30T13:37:35;20.88;;;11.80;;
46815;SDS011;32787;53.316;8.670;2024-01-30T13:40:02;21.27;;;11.27;;
46815;SDS011;32787;53.316;8.670;2024-01-30T13:42:32;17.85;;;11.18;;
46815;SDS011;32787;53.316;8.670;2024-01-30T13:44:57;20.52;;;9.63;;
46815;SDS011;32787;53.316;8.670;2024-01-30T13:47:23;23.40;;;9.52;;
46815;SDS011;32787;53.316;8.670;2024-01-30T13:49:50;16.42;;;10.05;;
46815;SDS011;32787;53.316;8.670;2024-01-30T13:52:17;18.65;;;10.38;;
46815;SDS011;32787;53.316;8.670;2024-01-30T13:54:43;17.08;;;12.13;;
46815;SDS011;32787;53.316;8.670;2024-01-30T13:57:09;20.13;;;12.85;;
46815;SDS011;32787;53.316;8.670;2024-01-30T13:59:35;17.88;;;12.77;;
46815;SDS011;32787;53.316;8.670;2024-01-30T14:02:00;21.58;;;14.57;;
46815;SDS011;32787;53.316;8.670;2024-01-30T14:04:26;26.85;;;24.20;;
46815;SDS011;32787;53.316;8.670;2024-01-30T14:06:52;34.85;;;31.27;;
46815;SDS011;32787;53.316;8.670;2024-01-30T14:09:17;28.55;;;25.75;;
46815;SDS011;32787;53.316;8.670;2024-01-30T14:11:43;25.42;;;23.08;;
46815;SDS011;32787;53.316;8.670;2024-01-30T14:14:09;23.15;;;20.77;;
46815;SDS011;32787;53.316;8.670;2024-01-30T14:16:34;21.15;;;17.48;;
46815;SDS011;32787;53.316;8.670;2024-01-30T14:19:00;19.35;;;17.17;;
46815;SDS011;32787;53.316;8.670;2024-01-30T14:21:26;22.67;;;17.13;;